GFLL

Freetown/Lungi Airport

Airport
ICAO code
GFLL
IATA Code
FNA
Summary
ICAO Region
AFI
ICAO Territory
Location

Lungi, Sierra Leone

Serving
Freetown
Elevation
84 ft
Coordinates
8° 36' 59" N , 13° 11' 44" W
KCC
Metar
GFLL 281000Z 24007KT 7000 HZ FEW011 27/23 Q1012

International airport serving the city of Freetown, Sierra Leone.

Climatology

Tropical Monsoon climate (Köppen climate classification Am)

Runways

Designator Length Width Surface Rops
12/30 3200 46 ASP Yes/Yes

Airport map

Aerial View

SKYbrary Partners:

Safety knowledge contributed by: